Time;durP1;ratioP1;P1;durP2;ratioP2;P2;SDS_P1;SDS_P2;PMS_P1;PMS_P2;Temp;Humidity;BMP_temperature;BMP_pressure;BME280_temperature;BME280_humidity;BME280_pressure;Samples;Min_cycle;Max_cycle;Signal;HPM_P1;HPM_P2
2023/11/23 00:00:31;;;;;;;15.00;13.43;;;4.00;99.90;;;;;;5017619;28;20282;-76
2023/11/23 00:02:59;;;;;;;14.50;13.20;;;4.00;99.90;;;;;;5017052;28;20210;-76
2023/11/23 00:05:28;;;;;;;13.82;12.65;;;3.90;99.90;;;;;;5013046;28;20244;-76
2023/11/23 00:07:56;;;;;;;13.25;11.95;;;3.80;99.90;;;;;;5015172;28;20668;-76
2023/11/23 00:10:26;;;;;;;12.98;11.98;;;3.90;99.90;;;;;;5017666;28;20210;-75
2023/11/23 00:12:54;;;;;;;13.23;12.02;;;4.00;99.90;;;;;;5018624;28;20277;-76
2023/11/23 00:15:22;;;;;;;13.70;12.40;;;4.00;99.90;;;;;;5018690;28;20203;-75
2023/11/23 00:17:52;;;;;;;13.95;12.70;;;4.00;99.90;;;;;;5018251;28;20222;-76
2023/11/23 00:20:20;;;;;;;14.50;13.13;;;4.10;99.90;;;;;;5018199;28;20386;-76
2023/11/23 00:22:49;;;;;;;13.05;11.75;;;4.10;99.90;;;;;;5021366;28;20250;-76
2023/11/23 00:25:17;;;;;;;14.50;13.20;;;4.10;99.90;;;;;;5017733;28;20939;-77
2023/11/23 00:27:46;;;;;;;14.55;13.15;;;4.10;99.90;;;;;;5016612;28;20206;-77
2023/11/23 00:30:15;;;;;;;14.68;12.95;;;4.00;99.90;;;;;;5014907;28;20206;-77
2023/11/23 00:32:43;;;;;;;13.80;12.60;;;4.00;99.90;;;;;;5017713;28;20214;-76
2023/11/23 00:35:11;;;;;;;14.53;13.27;;;4.00;99.90;;;;;;5019461;28;20471;-77
2023/11/23 00:37:39;;;;;;;13.80;12.70;;;3.90;99.90;;;;;;5018126;28;20469;-76
2023/11/23 00:40:08;;;;;;;13.68;12.57;;;4.00;99.90;;;;;;5020170;28;20663;-76
2023/11/23 00:42:36;;;;;;;13.45;12.20;;;3.90;99.90;;;;;;5014779;28;20778;-77
2023/11/23 00:45:08;;;;;;;13.23;12.07;;;4.00;99.90;;;;;;5018356;28;20665;-75
2023/11/23 00:47:36;;;;;;;13.13;11.93;;;3.90;99.90;;;;;;5020316;28;20230;-78
2023/11/23 00:50:06;;;;;;;12.48;11.48;;;3.90;99.90;;;;;;5018281;28;20203;-77
2023/11/23 00:52:34;;;;;;;13.37;12.37;;;3.90;99.90;;;;;;5019414;28;20321;-76
2023/11/23 00:55:04;;;;;;;12.77;11.77;;;3.90;99.90;;;;;;5018031;28;20619;-78
2023/11/23 00:57:34;;;;;;;13.37;12.27;;;4.00;99.90;;;;;;5015554;28;20273;-77
2023/11/23 01:00:05;;;;;;;15.02;13.63;;;4.00;99.90;;;;;;5021446;28;20444;-79
2023/11/23 01:02:35;;;;;;;12.60;11.40;;;4.00;99.90;;;;;;5018766;28;20221;-77
2023/11/23 01:05:04;;;;;;;13.35;12.25;;;4.00;99.90;;;;;;5020060;28;20201;-76
2023/11/23 01:07:34;;;;;;;14.32;13.00;;;4.10;99.90;;;;;;5015527;28;20194;-76
2023/11/23 01:10:02;;;;;;;13.05;12.05;;;4.10;99.90;;;;;;5017474;28;20281;-77
2023/11/23 01:12:30;;;;;;;13.38;12.35;;;4.10;99.90;;;;;;5014876;28;20708;-76
2023/11/23 01:14:58;;;;;;;13.05;11.95;;;4.10;99.90;;;;;;5016988;28;20203;-78
2023/11/23 01:17:27;;;;;;;12.63;11.75;;;4.10;99.90;;;;;;5017206;28;20210;-78
2023/11/23 01:19:56;;;;;;;12.77;11.70;;;4.10;99.90;;;;;;5015639;28;20639;-79
2023/11/23 01:22:24;;;;;;;13.73;12.33;;;4.10;99.90;;;;;;5017811;28;20460;-75
2023/11/23 01:24:52;;;;;;;12.38;11.38;;;4.10;99.90;;;;;;5019201;28;20959;-76
2023/11/23 01:27:21;;;;;;;12.20;11.20;;;4.10;99.90;;;;;;5016019;28;20206;-78
2023/11/23 01:29:49;;;;;;;12.68;11.65;;;4.10;99.90;;;;;;5018045;28;20219;-79
2023/11/23 01:32:17;;;;;;;13.15;12.15;;;4.10;99.90;;;;;;5015674;28;20221;-80
2023/11/23 01:34:45;;;;;;;11.90;10.93;;;4.10;99.90;;;;;;5020449;28;20213;-77
2023/11/23 01:37:14;;;;;;;13.13;12.05;;;4.20;99.90;;;;;;5020723;28;20454;-77
2023/11/23 01:39:43;;;;;;;12.13;11.23;;;4.20;99.90;;;;;;5019209;28;20201;-78
2023/11/23 01:42:11;;;;;;;12.20;11.30;;;4.20;99.90;;;;;;5019310;28;20233;-78
2023/11/23 01:44:39;;;;;;;12.03;11.13;;;4.20;99.90;;;;;;5018581;28;21154;-77
2023/11/23 01:47:11;;;;;;;11.80;10.80;;;4.20;99.90;;;;;;5011995;28;20454;-76
2023/11/23 01:49:42;;;;;;;11.40;10.50;;;4.20;99.90;;;;;;5017085;28;20469;-77
2023/11/23 01:52:10;;;;;;;12.02;11.20;;;4.20;99.90;;;;;;5016466;28;20474;-77
2023/11/23 01:54:40;;;;;;;12.65;11.60;;;4.20;99.90;;;;;;5015233;28;20290;-78
2023/11/23 01:57:09;;;;;;;12.48;11.48;;;4.20;99.90;;;;;;5019822;28;20198;-78
2023/11/23 01:59:38;;;;;;;12.55;11.35;;;4.20;99.90;;;;;;5016298;28;20463;-76
2023/11/23 02:02:07;;;;;;;12.25;11.25;;;4.20;99.90;;;;;;5015838;28;20808;-79
2023/11/23 02:04:35;;;;;;;11.57;10.40;;;4.30;99.90;;;;;;5016892;28;20214;-77
2023/11/23 02:07:03;;;;;;;12.00;11.00;;;4.30;99.90;;;;;;5017563;28;20459;-77
2023/11/23 02:09:32;;;;;;;11.33;10.43;;;4.30;99.90;;;;;;5017622;28;20468;-77
2023/11/23 02:12:01;;;;;;;11.90;10.90;;;4.20;99.90;;;;;;5017329;28;22036;-77
2023/11/23 02:14:30;;;;;;;11.75;10.80;;;4.20;99.90;;;;;;5015479;28;20195;-77
2023/11/23 02:16:59;;;;;;;12.32;11.32;;;4.20;99.90;;;;;;5019873;28;20248;-78
2023/11/23 02:19:27;;;;;;;11.90;11.05;;;4.10;99.90;;;;;;5021126;28;20684;-76
2023/11/23 02:21:55;;;;;;;12.30;11.30;;;4.10;99.90;;;;;;5020899;28;20339;-75
2023/11/23 02:24:25;;;;;;;12.63;11.57;;;4.10;99.90;;;;;;5014689;28;20212;-78
2023/11/23 02:26:54;;;;;;;12.68;11.55;;;4.10;99.90;;;;;;5016912;28;20873;-77
2023/11/23 02:29:23;;;;;;;12.57;11.57;;;4.10;99.90;;;;;;5017759;28;20273;-77
2023/11/23 02:31:51;;;;;;;15.20;13.90;;;4.10;99.90;;;;;;5017869;28;20449;-77
2023/11/23 02:34:19;;;;;;;13.85;12.65;;;3.90;99.90;;;;;;5018627;28;20492;-76
2023/11/23 02:36:48;;;;;;;12.82;11.55;;;4.00;99.90;;;;;;5017088;28;20209;-76
2023/11/23 02:39:16;;;;;;;13.10;11.90;;;4.00;99.90;;;;;;5021023;28;20206;-76
2023/11/23 02:41:46;;;;;;;13.00;11.88;;;4.00;99.90;;;;;;5014247;28;20223;-76
2023/11/23 02:44:14;;;;;;;13.10;12.10;;;4.00;99.90;;;;;;5016940;28;20211;-76
2023/11/23 02:46:42;;;;;;;13.95;12.65;;;4.00;99.90;;;;;;5015097;28;20672;-76
2023/11/23 02:49:11;;;;;;;13.68;12.32;;;3.90;99.90;;;;;;5017446;28;20217;-76
2023/11/23 02:51:39;;;;;;;12.65;11.45;;;4.00;99.90;;;;;;5017479;28;20223;-76
2023/11/23 02:54:07;;;;;;;11.93;10.93;;;4.10;99.90;;;;;;5013442;28;20215;-76
2023/11/23 02:56:36;;;;;;;12.55;11.45;;;4.00;99.90;;;;;;5018786;28;20285;-75
2023/11/23 02:59:07;;;;;;;12.65;11.45;;;4.00;99.90;;;;;;5014773;28;20207;-78
2023/11/23 03:01:36;;;;;;;12.93;11.80;;;4.00;99.90;;;;;;5017791;28;20254;-76
2023/11/23 03:04:05;;;;;;;12.98;11.88;;;4.00;99.90;;;;;;5017541;28;20216;-74
2023/11/23 03:06:33;;;;;;;13.60;12.50;;;4.00;99.90;;;;;;5015788;28;20195;-76
2023/11/23 03:09:01;;;;;;;12.77;11.50;;;4.00;99.90;;;;;;5014273;28;20258;-77
2023/11/23 03:11:29;;;;;;;13.30;12.13;;;4.00;99.90;;;;;;5016180;28;20249;-77
2023/11/23 03:13:58;;;;;;;13.73;12.55;;;4.00;99.90;;;;;;5016195;28;20201;-77
2023/11/23 03:16:27;;;;;;;12.02;10.93;;;3.90;1.00;;;;;;5014778;28;20200;-78
2023/11/23 03:18:55;;;;;;;12.95;11.65;;;4.00;1.00;;;;;;5014000;28;20190;-75
2023/11/23 03:21:24;;;;;;;11.32;10.43;;;3.90;1.00;;;;;;5013967;28;20340;-78
2023/11/23 03:23:53;;;;;;;11.55;10.55;;;3.90;99.90;;;;;;5015703;28;20691;-77
2023/11/23 03:26:21;;;;;;;11.57;10.38;;;3.90;1.00;;;;;;5014108;28;20195;-78
2023/11/23 03:28:49;;;;;;;12.43;11.38;;;3.90;1.00;;;;;;5015737;28;20282;-76
2023/11/23 03:31:17;;;;;;;11.57;10.68;;;3.80;1.00;;;;;;5012938;28;20708;-78
2023/11/23 03:33:47;;;;;;;11.47;10.47;;;3.80;1.00;;;;;;5018665;28;20205;-76
2023/11/23 03:36:15;;;;;;;12.40;11.27;;;3.90;1.00;;;;;;5015552;28;21033;-76
2023/11/23 03:38:43;;;;;;;10.40;9.50;;;3.90;1.00;;;;;;5015237;28;20207;-77
2023/11/23 03:41:11;;;;;;;10.63;9.73;;;3.80;1.00;;;;;;5014164;28;20222;-79
2023/11/23 03:43:39;;;;;;;10.68;9.77;;;3.80;1.00;;;;;;5016698;28;20294;-77
2023/11/23 03:46:07;;;;;;;11.95;10.90;;;3.70;1.00;;;;;;5013146;28;20217;-77
2023/11/23 03:48:36;;;;;;;11.80;10.82;;;3.70;1.00;;;;;;5014876;28;20229;-76
2023/11/23 03:51:06;;;;;;;12.15;10.95;;;3.80;1.00;;;;;;5012882;28;20245;-75
2023/11/23 03:53:34;;;;;;;11.90;10.80;;;3.70;1.00;;;;;;5015865;28;20298;-75
2023/11/23 03:56:02;;;;;;;12.50;11.33;;;3.70;1.00;;;;;;5014951;28;20705;-76
2023/11/23 03:58:30;;;;;;;11.15;10.13;;;3.70;1.00;;;;;;5017240;28;20457;-76
2023/11/23 04:01:00;;;;;;;12.18;11.07;;;3.70;1.00;;;;;;5012186;28;20223;-74
2023/11/23 04:03:29;;;;;;;12.40;11.30;;;3.60;1.00;;;;;;5016805;28;20198;-76
2023/11/23 04:05:57;;;;;;;13.80;12.65;;;3.60;1.00;;;;;;5015753;28;20206;-77
2023/11/23 04:08:27;;;;;;;11.15;10.15;;;3.70;1.00;;;;;;5014175;28;20210;-77
2023/11/23 04:10:55;;;;;;;11.40;10.43;;;3.70;1.00;;;;;;5014753;28;21146;-77
2023/11/23 04:13:23;;;;;;;11.20;10.30;;;3.60;1.00;;;;;;5013966;28;20206;-76
2023/11/23 04:15:51;;;;;;;11.38;10.45;;;3.60;1.00;;;;;;5015162;28;20195;-78
2023/11/23 04:18:18;;;;;;;10.00;9.20;;;3.70;1.00;;;;;;5014778;28;20248;-76
2023/11/23 04:20:46;;;;;;;11.45;10.55;;;3.60;1.00;;;;;;5017479;28;20249;-76
2023/11/23 04:23:15;;;;;;;11.63;10.73;;;3.60;1.00;;;;;;5017564;28;20198;-77
2023/11/23 04:25:45;;;;;;;11.82;10.43;;;3.60;1.00;;;;;;5018014;28;20195;-77
2023/11/23 04:28:13;;;;;;;11.23;10.23;;;3.60;1.00;;;;;;5021005;28;20198;-79
2023/11/23 04:30:41;;;;;;;12.52;11.48;;;3.60;1.00;;;;;;5019515;28;20241;-79
2023/11/23 04:33:09;;;;;;;12.23;11.23;;;3.60;1.00;;;;;;5019102;28;20214;-78
2023/11/23 04:35:38;;;;;;;11.13;10.23;;;3.50;1.00;;;;;;5017917;28;20202;-77
2023/11/23 04:38:06;;;;;;;11.85;10.95;;;3.60;1.00;;;;;;5019236;28;20204;-77
2023/11/23 04:40:34;;;;;;;11.52;10.45;;;3.60;1.00;;;;;;5020200;28;20210;-78
2023/11/23 04:43:03;;;;;;;10.82;10.10;;;3.60;1.00;;;;;;5021453;28;20226;-78
2023/11/23 04:45:32;;;;;;;11.88;10.93;;;3.60;1.00;;;;;;5019498;28;20203;-78
2023/11/23 04:48:00;;;;;;;11.00;10.20;;;3.60;1.00;;;;;;5021075;28;20226;-78
2023/11/23 04:50:28;;;;;;;10.70;9.80;;;3.60;1.00;;;;;;5016768;28;20316;-79
2023/11/23 04:52:57;;;;;;;11.13;10.15;;;3.60;1.00;;;;;;5017511;28;20217;-78
2023/11/23 04:55:28;;;;;;;10.70;10.00;;;3.70;1.00;;;;;;5019540;28;20202;-79
2023/11/23 04:57:56;;;;;;;10.55;9.65;;;3.70;1.00;;;;;;5015684;28;20297;-78
2023/11/23 05:00:26;;;;;;;10.82;9.93;;;3.70;1.00;;;;;;5020645;28;20645;-77
2023/11/23 05:02:54;;;;;;;9.95;9.23;;;3.60;1.00;;;;;;5018316;28;20230;-80
2023/11/23 05:05:22;;;;;;;10.50;9.68;;;3.60;1.00;;;;;;5018974;28;20206;-78
2023/11/23 05:07:51;;;;;;;10.50;9.63;;;3.70;1.00;;;;;;5020489;28;20203;-80
2023/11/23 05:10:20;;;;;;;10.18;9.38;;;3.70;1.00;;;;;;5019540;28;20213;-77
2023/11/23 05:12:48;;;;;;;10.93;9.88;;;3.70;1.00;;;;;;5019990;28;20219;-81
2023/11/23 05:15:16;;;;;;;10.00;9.30;;;3.70;1.00;;;;;;5021595;28;20225;-83
2023/11/23 05:17:46;;;;;;;10.30;9.60;;;3.70;1.00;;;;;;5016522;28;20210;-79
2023/11/23 05:20:15;;;;;;;10.40;9.60;;;3.70;1.00;;;;;;5016094;28;20205;-76
2023/11/23 05:22:45;;;;;;;9.77;9.07;;;3.70;1.00;;;;;;5018835;28;20284;-78
2023/11/23 05:25:14;;;;;;;11.07;10.13;;;3.70;1.00;;;;;;5017678;28;20211;-77
2023/11/23 05:27:42;;;;;;;10.55;9.73;;;3.70;1.00;;;;;;5020211;28;20202;-79
2023/11/23 05:30:11;;;;;;;10.63;9.77;;;3.70;1.00;;;;;;5017204;28;20302;-80
2023/11/23 05:32:40;;;;;;;10.27;9.50;;;3.70;1.00;;;;;;5017777;28;20210;-78
2023/11/23 05:35:10;;;;;;;10.63;9.73;;;3.70;1.00;;;;;;5019434;28;20675;-78
2023/11/23 05:37:38;;;;;;;9.82;8.85;;;3.70;1.00;;;;;;5019196;28;20201;-77
2023/11/23 05:40:08;;;;;;;10.60;9.70;;;3.70;1.00;;;;;;5021001;28;20198;-78
2023/11/23 05:42:37;;;;;;;9.73;9.05;;;3.70;1.00;;;;;;5015748;28;20622;-78
2023/11/23 05:45:06;;;;;;;9.48;8.77;;;3.60;1.00;;;;;;5019082;28;20316;-76
2023/11/23 05:47:34;;;;;;;10.20;9.50;;;3.60;1.00;;;;;;5019817;28;20593;-77
2023/11/23 05:50:02;;;;;;;9.80;9.20;;;3.50;1.00;;;;;;5020945;28;20601;-77
2023/11/23 05:52:32;;;;;;;9.10;8.48;;;3.60;1.00;;;;;;5017647;28;20250;-77
2023/11/23 05:55:00;;;;;;;9.98;9.25;;;3.70;1.00;;;;;;5021578;28;20203;-77
2023/11/23 05:57:28;;;;;;;9.10;8.40;;;3.80;1.00;;;;;;5022735;28;20198;-78
2023/11/23 05:59:56;;;;;;;10.50;9.70;;;3.80;1.00;;;;;;5019745;28;20555;-78
2023/11/23 06:02:24;;;;;;;9.32;8.45;;;3.80;1.00;;;;;;5013881;28;20233;-79
2023/11/23 06:04:53;;;;;;;8.48;7.80;;;3.70;1.00;;;;;;5022167;28;20249;-79
2023/11/23 06:07:21;;;;;;;9.15;8.55;;;3.70;1.00;;;;;;5019669;28;20225;-78
2023/11/23 06:09:51;;;;;;;8.88;8.18;;;3.70;1.00;;;;;;5020007;28;20593;-76
2023/11/23 06:12:19;;;;;;;9.30;8.60;;;3.70;1.00;;;;;;5018730;28;20797;-77
2023/11/23 06:14:47;;;;;;;9.07;8.40;;;3.60;1.00;;;;;;5020850;28;20206;-79
2023/11/23 06:17:16;;;;;;;9.77;9.07;;;3.70;1.00;;;;;;5019755;28;20248;-78
2023/11/23 06:19:44;;;;;;;8.18;7.57;;;3.70;1.00;;;;;;5016110;28;20199;-78
2023/11/23 06:22:12;;;;;;;9.15;8.45;;;3.70;1.00;;;;;;5019398;28;20226;-79
2023/11/23 06:24:40;;;;;;;9.75;8.95;;;3.70;1.00;;;;;;5016488;28;20203;-78
2023/11/23 06:27:10;;;;;;;9.95;9.25;;;3.70;1.00;;;;;;5016651;28;20207;-78
2023/11/23 06:29:38;;;;;;;9.10;8.60;;;3.80;1.00;;;;;;5019663;28;20203;-77
2023/11/23 06:32:07;;;;;;;9.10;8.50;;;3.70;1.00;;;;;;5020515;28;20242;-78
2023/11/23 06:34:35;;;;;;;9.10;8.30;;;3.60;1.00;;;;;;5016644;28;20282;-78
2023/11/23 06:37:08;;;;;;;11.95;10.85;;;3.50;1.00;;;;;;5018032;28;20199;-78
2023/11/23 06:39:37;;;;;;;10.48;9.77;;;3.60;1.00;;;;;;5018776;28;20195;-80
2023/11/23 06:42:05;;;;;;;11.93;11.02;;;3.50;1.00;;;;;;5016861;28;20256;-81
2023/11/23 06:44:35;;;;;;;13.13;11.93;;;3.50;1.00;;;;;;5017177;28;20294;-78
2023/11/23 06:47:04;;;;;;;9.57;8.98;;;3.50;1.00;;;;;;5020433;28;20738;-79
2023/11/23 06:49:32;;;;;;;11.50;10.52;;;3.60;1.00;;;;;;5017770;28;20202;-78
2023/11/23 06:52:01;;;;;;;9.40;8.80;;;3.60;1.00;;;;;;5017272;28;20237;-78
2023/11/23 06:54:29;;;;;;;12.52;11.43;;;3.60;1.00;;;;;;5019700;28;20221;-78
2023/11/23 06:56:57;;;;;;;13.27;11.90;;;3.60;1.00;;;;;;5017241;28;20206;-77
2023/11/23 06:59:25;;;;;;;10.60;9.60;;;3.60;1.00;;;;;;5019136;28;20543;-78
2023/11/23 07:01:55;;;;;;;8.75;8.15;;;3.60;1.00;;;;;;5020107;28;20227;-77
2023/11/23 07:04:24;;;;;;;9.50;8.90;;;3.60;1.00;;;;;;5017124;28;20205;-80
2023/11/23 07:06:52;;;;;;;8.57;8.00;;;3.60;1.00;;;;;;5015654;28;20227;-77
2023/11/23 07:09:21;;;;;;;9.50;8.90;;;3.60;1.00;;;;;;5019299;28;20256;-76
2023/11/23 07:11:53;;;;;;;9.82;9.23;;;3.70;1.00;;;;;;5018155;28;20254;-78
2023/11/23 07:14:24;;;;;;;9.63;8.82;;;3.70;1.00;;;;;;5018280;28;20677;-79
2023/11/23 07:16:54;;;;;;;9.18;8.50;;;3.70;1.00;;;;;;5017728;28;20268;-80
2023/11/23 07:19:24;;;;;;;9.05;8.38;;;3.80;1.00;;;;;;5019765;28;20190;-78
2023/11/23 07:21:52;;;;;;;8.60;8.00;;;3.80;1.00;;;;;;5020264;28;20297;-77
2023/11/23 07:24:20;;;;;;;10.65;9.90;;;3.90;1.00;;;;;;5017644;28;20207;-78
2023/11/23 07:26:51;;;;;;;7.78;7.38;;;4.00;1.00;;;;;;5018056;28;20639;-78
2023/11/23 07:29:19;;;;;;;8.15;7.68;;;4.00;1.00;;;;;;5016434;28;20261;-79
2023/11/23 07:31:48;;;;;;;9.02;8.45;;;4.10;1.00;;;;;;5017339;28;20226;-78
2023/11/23 07:34:16;;;;;;;8.10;7.70;;;4.10;1.00;;;;;;5022352;28;20211;-78
2023/11/23 07:36:46;;;;;;;8.88;8.38;;;4.20;1.00;;;;;;5018930;28;20667;-77
2023/11/23 07:39:16;;;;;;;7.50;7.10;;;4.30;1.00;;;;;;5018626;28;20292;-78
2023/11/23 07:41:45;;;;;;;7.72;7.43;;;4.30;1.00;;;;;;5016895;28;20330;-78
2023/11/23 07:44:13;;;;;;;8.57;7.90;;;4.30;1.00;;;;;;5017734;28;20218;-79
2023/11/23 07:46:41;;;;;;;8.27;7.88;;;4.30;99.90;;;;;;5016748;28;20771;-77
2023/11/23 07:49:09;;;;;;;9.32;8.73;;;4.30;99.90;;;;;;5016932;28;20210;-79
2023/11/23 07:51:38;;;;;;;8.73;8.23;;;4.40;99.90;;;;;;5017014;28;20340;-78
2023/11/23 07:54:09;;;;;;;7.85;7.35;;;4.30;99.90;;;;;;5018432;28;20200;-78
2023/11/23 07:56:37;;;;;;;8.57;7.93;;;4.30;99.90;;;;;;5018158;28;20923;-79
2023/11/23 07:59:05;;;;;;;8.00;7.43;;;4.30;99.90;;;;;;5010548;28;20203;-81
2023/11/23 08:01:33;;;;;;;7.70;7.30;;;4.50;99.90;;;;;;5016670;28;20248;-79
2023/11/23 08:04:04;;;;;;;8.30;7.75;;;4.50;99.90;;;;;;5017974;28;20209;-79
2023/11/23 08:06:33;;;;;;;7.47;7.18;;;4.50;99.90;;;;;;5019644;28;20198;-79
2023/11/23 08:09:01;;;;;;;7.70;7.35;;;4.50;99.90;;;;;;5015419;28;20680;-79
2023/11/23 08:11:31;;;;;;;8.35;7.88;;;4.50;99.90;;;;;;5016067;28;20317;-80
2023/11/23 08:14:00;;;;;;;8.25;7.80;;;4.50;99.90;;;;;;5020949;28;20209;-79
2023/11/23 08:16:28;;;;;;;8.50;8.10;;;4.60;99.90;;;;;;5018306;28;20209;-77
2023/11/23 08:18:56;;;;;;;9.02;8.63;;;4.60;99.90;;;;;;5018191;28;20274;-80
2023/11/23 08:21:25;;;;;;;8.00;7.50;;;4.70;99.90;;;;;;5019450;28;20273;-78
2023/11/23 08:23:53;;;;;;;7.60;7.20;;;4.70;99.90;;;;;;5014127;28;20195;-77
2023/11/23 08:26:22;;;;;;;8.52;8.10;;;4.80;99.90;;;;;;5018762;28;20850;-79
2023/11/23 08:28:52;;;;;;;8.43;8.00;;;4.80;99.90;;;;;;5015995;28;20202;-79
2023/11/23 08:31:21;;;;;;;8.32;7.93;;;4.80;99.90;;;;;;5018781;28;20219;-79
2023/11/23 08:33:50;;;;;;;8.10;7.70;;;4.90;99.90;;;;;;5019280;28;20206;-81
2023/11/23 08:36:18;;;;;;;8.82;8.32;;;5.00;99.90;;;;;;5020312;28;20511;-79
2023/11/23 08:38:46;;;;;;;8.82;8.23;;;5.10;99.90;;;;;;5016437;28;20285;-78
2023/11/23 08:41:16;;;;;;;7.88;7.57;;;5.20;99.90;;;;;;5017174;28;20227;-79
2023/11/23 08:43:45;;;;;;;8.53;8.13;;;5.30;99.90;;;;;;5020861;28;20214;-79
2023/11/23 08:46:15;;;;;;;9.75;9.05;;;5.30;99.90;;;;;;5018870;28;20441;-79
2023/11/23 08:48:43;;;;;;;8.02;7.72;;;5.30;99.90;;;;;;5019765;28;20686;-77
2023/11/23 08:51:11;;;;;;;8.33;7.83;;;5.30;1.00;;;;;;5019154;28;20233;-79
2023/11/23 08:53:39;;;;;;;8.30;7.80;;;5.40;1.00;;;;;;5020881;28;20478;-80
2023/11/23 08:56:08;;;;;;;8.75;8.25;;;5.40;1.00;;;;;;5019345;28;20457;-78
2023/11/23 08:58:36;;;;;;;8.43;7.95;;;5.40;1.00;;;;;;5018033;28;20199;-79
2023/11/23 09:01:05;;;;;;;7.88;7.50;;;5.40;1.00;;;;;;5018346;28;20688;-78
2023/11/23 09:03:34;;;;;;;8.00;7.60;;;5.30;1.00;;;;;;5019591;28;20230;-78
2023/11/23 09:06:03;;;;;;;9.05;8.45;;;5.30;1.00;;;;;;5024581;28;20493;-80
2023/11/23 09:08:31;;;;;;;7.90;7.60;;;5.40;1.00;;;;;;5020042;28;20202;-80
2023/11/23 09:11:00;;;;;;;8.20;7.80;;;5.40;1.00;;;;;;5021596;28;20226;-77
2023/11/23 09:13:30;;;;;;;9.43;8.93;;;5.40;1.00;;;;;;5020536;28;20472;-78
2023/11/23 09:15:58;;;;;;;8.95;8.50;;;5.50;1.00;;;;;;5019271;28;20453;-78
2023/11/23 09:18:26;;;;;;;8.77;8.47;;;5.50;1.00;;;;;;5018906;28;20202;-78
2023/11/23 09:20:56;;;;;;;8.73;8.33;;;5.50;1.00;;;;;;5020571;28;20542;-79
2023/11/23 09:23:28;;;;;;;8.60;8.20;;;5.50;1.00;;;;;;5021606;28;20440;-78
2023/11/23 09:25:56;;;;;;;8.53;8.13;;;5.60;1.00;;;;;;5020228;28;20523;-81
2023/11/23 09:28:25;;;;;;;9.48;8.98;;;5.60;1.00;;;;;;5018490;28;20454;-78
2023/11/23 09:30:53;;;;;;;8.73;8.43;;;5.70;1.00;;;;;;5020018;28;20199;-78
2023/11/23 09:33:22;;;;;;;9.23;8.70;;;5.70;1.00;;;;;;5021272;28;20226;-77
2023/11/23 09:35:52;;;;;;;8.77;8.27;;;5.70;1.00;;;;;;5021470;28;20202;-78
2023/11/23 09:38:22;;;;;;;8.65;8.35;;;5.70;1.00;;;;;;5021118;28;20472;-77
2023/11/23 09:40:58;;;;;;;8.97;8.57;;;5.80;1.00;;;;;;5018880;28;20656;-79
2023/11/23 09:43:27;;;;;;;8.97;8.37;;;5.80;1.00;;;;;;5019685;28;20433;-78
2023/11/23 09:45:55;;;;;;;9.07;8.67;;;5.90;1.00;;;;;;5021996;28;20460;-80
2023/11/23 09:48:28;;;;;;;8.73;8.33;;;5.90;1.00;;;;;;5020746;28;21049;-78
2023/11/23 09:50:57;;;;;;;8.97;8.47;;;6.00;1.00;;;;;;5017133;28;21328;-78
2023/11/23 09:53:28;;;;;;;10.10;9.60;;;6.10;1.00;;;;;;5021717;28;20624;-79
2023/11/23 09:55:58;;;;;;;9.73;9.17;;;6.10;1.00;;;;;;5018951;28;20495;-80
2023/11/23 09:58:26;;;;;;;9.27;8.90;;;6.20;1.00;;;;;;5024168;28;20455;-78
2023/11/23 10:00:55;;;;;;;9.63;9.13;;;6.20;1.00;;;;;;5018722;28;20461;-76
2023/11/23 10:03:25;;;;;;;9.70;9.30;;;6.30;1.00;;;;;;5020039;28;20440;-76
2023/11/23 10:05:53;;;;;;;9.57;9.07;;;6.30;1.00;;;;;;5018098;28;20545;-76
2023/11/23 10:08:21;;;;;;;9.00;8.77;;;6.50;1.00;;;;;;5021695;28;20863;-76
2023/11/23 10:10:51;;;;;;;9.83;9.33;;;7.00;1.00;;;;;;5017092;28;20441;-76
2023/11/23 10:13:20;;;;;;;9.80;9.40;;;7.80;1.00;;;;;;5020675;28;20994;-75
2023/11/23 10:15:48;;;;;;;9.10;8.80;;;7.60;99.90;;;;;;5020014;28;20460;-76
2023/11/23 10:18:17;;;;;;;8.80;8.50;;;7.40;99.90;;;;;;5020561;28;20547;-77
2023/11/23 10:20:46;;;;;;;9.27;8.87;;;7.20;1.00;;;;;;5019467;28;20453;-78
2023/11/23 10:23:14;;;;;;;9.60;9.17;;;7.00;1.00;;;;;;5020811;28;20828;-77
2023/11/23 10:25:43;;;;;;;9.60;9.20;;;6.90;1.00;;;;;;5019337;28;20472;-76
2023/11/23 10:28:12;;;;;;;9.50;9.10;;;6.80;1.00;;;;;;5016860;28;20534;-77
2023/11/23 10:30:41;;;;;;;9.13;8.73;;;6.80;1.00;;;;;;5016670;28;20461;-78
2023/11/23 10:33:11;;;;;;;9.17;8.77;;;6.70;1.00;;;;;;5020963;28;20539;-80
2023/11/23 10:35:45;;;;;;;9.50;9.10;;;6.70;1.00;;;;;;5022074;28;20472;-79
2023/11/23 10:38:16;;;;;;;9.07;8.77;;;6.60;1.00;;;;;;5023317;28;20458;-78
2023/11/23 10:40:45;;;;;;;9.53;9.03;;;6.60;1.00;;;;;;5018632;28;20492;-78
2023/11/23 10:43:17;;;;;;;10.73;10.23;;;6.50;1.00;;;;;;5017860;28;20441;-77
2023/11/23 10:45:48;;;;;;;10.57;10.00;;;6.40;1.00;;;;;;5019162;28;20536;-77
2023/11/23 10:48:20;;;;;;;10.00;9.43;;;6.50;1.00;;;;;;5017993;28;21045;-78
2023/11/23 10:50:49;;;;;;;10.30;9.83;;;6.50;1.00;;;;;;5020187;28;20553;-78
2023/11/23 10:53:17;;;;;;;10.57;9.77;;;6.40;1.00;;;;;;5017971;28;20476;-77
2023/11/23 10:55:49;;;;;;;10.60;10.10;;;6.50;1.00;;;;;;5017355;28;20442;-78
2023/11/23 10:58:20;;;;;;;10.10;9.70;;;6.50;1.00;;;;;;5019749;28;20511;-76
2023/11/23 11:00:49;;;;;;;9.20;8.90;;;6.60;1.00;;;;;;5018513;28;20549;-79
2023/11/23 11:03:19;;;;;;;9.37;9.00;;;6.60;1.00;;;;;;5021342;28;20476;-76
2023/11/23 11:05:50;;;;;;;9.60;9.20;;;6.60;1.00;;;;;;5021334;28;20453;-77
2023/11/23 11:08:20;;;;;;;10.10;9.70;;;6.60;1.00;;;;;;5020346;28;20525;-79
2023/11/23 11:10:50;;;;;;;10.33;9.67;;;6.60;1.00;;;;;;5008852;28;20642;-78
2023/11/23 11:13:23;;;;;;;11.30;10.70;;;6.70;1.00;;;;;;5012144;28;20518;-77
2023/11/23 11:15:52;;;;;;;10.13;9.70;;;6.70;1.00;;;;;;5009443;28;21051;-80
2023/11/23 11:18:25;;;;;;;15.70;14.60;;;6.60;1.00;;;;;;5011793;28;20453;-80
2023/11/23 11:21:09;;;;;;;10.40;9.97;;;6.60;1.00;;;;;;5014507;28;20799;-78
2023/11/23 11:23:41;;;;;;;10.83;10.33;;;6.70;1.00;;;;;;5012113;28;20832;-77
2023/11/23 11:26:10;;;;;;;10.63;10.03;;;6.60;1.00;;;;;;5009822;28;20980;-78
2023/11/23 11:28:41;;;;;;;10.73;10.33;;;6.70;9.90;;;;;;5010929;28;20457;-78
2023/11/23 11:31:13;;;;;;;11.10;10.50;;;6.70;15.50;;;;;;5010231;28;20487;-78
2023/11/23 11:33:42;;;;;;;10.27;9.73;;;6.80;10.20;;;;;;5011324;28;20484;-79
2023/11/23 11:36:12;;;;;;;10.70;10.13;;;6.70;53.30;;;;;;5009493;28;20460;-79
2023/11/23 11:38:43;;;;;;;10.30;9.90;;;6.80;66.20;;;;;;5007526;28;21531;-77
2023/11/23 11:41:11;;;;;;;10.03;9.60;;;6.80;41.00;;;;;;5009805;28;20493;-77
2023/11/23 11:43:44;;;;;;;10.13;9.83;;;6.90;41.40;;;;;;5010944;28;20454;-79
2023/11/23 11:46:12;;;;;;;10.07;9.67;;;7.00;81.10;;;;;;5016223;28;20803;-78
2023/11/23 11:48:41;;;;;;;10.50;10.10;;;7.00;52.00;;;;;;5015409;28;20497;-77
2023/11/23 11:51:09;;;;;;;9.90;9.53;;;7.10;51.80;;;;;;5016404;28;20481;-77
2023/11/23 11:53:40;;;;;;;10.40;10.00;;;7.10;99.90;;;;;;5014948;28;20580;-78
2023/11/23 11:56:09;;;;;;;9.20;8.90;;;7.20;48.20;;;;;;5012925;28;20580;-79
2023/11/23 11:58:38;;;;;;;9.53;9.03;;;7.00;99.90;;;;;;5018356;28;20864;-77
2023/11/23 12:01:08;;;;;;;9.80;9.60;;;7.10;99.90;;;;;;5014929;28;20477;-78
2023/11/23 12:03:37;;;;;;;9.83;9.53;;;7.20;99.90;;;;;;5018499;28;20454;-78
2023/11/23 12:06:06;;;;;;;11.33;10.73;;;7.30;94.30;;;;;;5021615;28;20976;-79
2023/11/23 12:08:35;;;;;;;9.47;9.17;;;7.20;99.90;;;;;;5022579;28;21036;-77
2023/11/23 12:11:05;;;;;;;9.87;9.47;;;7.20;99.90;;;;;;5019877;28;20508;-77
2023/11/23 12:13:35;;;;;;;10.33;10.03;;;7.20;99.90;;;;;;5018446;28;20449;-77
2023/11/23 12:16:04;;;;;;;9.60;9.30;;;7.20;99.90;;;;;;5017697;28;20550;-78
2023/11/23 12:18:35;;;;;;;9.80;9.60;;;7.20;99.90;;;;;;5015476;28;20588;-78
2023/11/23 12:21:04;;;;;;;10.37;10.07;;;7.20;99.90;;;;;;5020698;28;20563;-79
2023/11/23 12:23:41;;;;;;;10.20;9.90;;;7.40;99.90;;;;;;5020031;28;20545;-78
2023/11/23 12:26:10;;;;;;;10.03;9.80;;;7.40;99.90;;;;;;5006187;28;20469;-77
2023/11/23 12:28:38;;;;;;;9.67;9.43;;;7.50;99.90;;;;;;5010574;28;20453;-79
2023/11/23 12:31:08;;;;;;;10.80;10.40;;;7.50;99.90;;;;;;5017608;28;20485;-77
2023/11/23 12:33:37;;;;;;;10.60;10.30;;;7.50;99.90;;;;;;5015600;28;21038;-77
2023/11/23 12:36:06;;;;;;;9.90;9.60;;;7.60;99.90;;;;;;5015964;28;20947;-79
2023/11/23 12:38:34;;;;;;;9.93;9.63;;;7.60;99.90;;;;;;5011458;28;20445;-77
2023/11/23 12:41:03;;;;;;;9.60;9.40;;;7.60;99.90;;;;;;5014361;28;21010;-77
2023/11/23 12:43:31;;;;;;;10.83;10.47;;;7.70;99.90;;;;;;5013961;28;20985;-79
2023/11/23 12:45:59;;;;;;;10.10;9.70;;;7.70;99.90;;;;;;5012033;28;20452;-75
2023/11/23 12:48:27;;;;;;;10.40;10.20;;;7.80;99.90;;;;;;5013164;28;20556;-79
2023/11/23 12:50:58;;;;;;;10.20;10.00;;;7.80;99.90;;;;;;5012914;28;20464;-79
2023/11/23 12:53:27;;;;;;;10.20;9.80;;;7.70;99.90;;;;;;5015213;28;20488;-76
2023/11/23 12:55:57;;;;;;;10.17;9.77;;;7.60;99.90;;;;;;5023629;28;20476;-77
2023/11/23 12:58:26;;;;;;;9.93;9.73;;;7.60;99.90;;;;;;5021147;28;21281;-78
2023/11/23 13:00:54;;;;;;;10.47;10.17;;;7.70;99.90;;;;;;5021103;28;20460;-77